createdAt,value
2023-01-24T00:02:05.200Z,12.70
2023-01-24T00:06:07.419Z,13.43
2023-01-24T00:10:09.982Z,11.03
2023-01-24T00:14:12.173Z,12.50
2023-01-24T00:18:14.301Z,12.53
2023-01-24T00:22:16.454Z,14.60
2023-01-24T00:26:19.413Z,11.97
2023-01-24T00:30:21.852Z,10.47
2023-01-24T00:34:24.033Z,10.37
2023-01-24T00:38:26.559Z,10.10
2023-01-24T00:42:28.716Z,11.03
2023-01-24T00:46:30.965Z,12.00
2023-01-24T00:50:33.307Z,8.23
2023-01-24T00:54:35.561Z,7.80
2023-01-24T00:58:37.863Z,8.93
2023-01-24T01:02:42.282Z,10.37
2023-01-24T01:06:45.449Z,9.93
2023-01-24T01:10:47.627Z,9.63
2023-01-24T01:14:49.813Z,11.70
2023-01-24T01:18:54.632Z,7.83
2023-01-24T01:22:56.997Z,8.27
2023-01-24T01:26:59.371Z,9.97
2023-01-24T01:31:01.755Z,10.03
2023-01-24T01:35:04.019Z,7.03
2023-01-24T01:39:06.751Z,7.97
2023-01-24T01:43:16.313Z,8.43
2023-01-24T01:47:30.142Z,7.80
2023-01-24T01:51:34.831Z,7.80
2023-01-24T01:55:40.405Z,7.87
2023-01-24T01:59:45.443Z,7.73
2023-01-24T02:03:53.237Z,8.17
2023-01-24T02:07:55.447Z,8.27
2023-01-24T02:12:00.624Z,7.37
2023-01-24T02:16:03.042Z,5.63
2023-01-24T02:20:08.196Z,5.90
2023-01-24T02:24:16.050Z,6.00
2023-01-24T02:28:18.617Z,6.20
2023-01-24T02:32:20.808Z,5.80
2023-01-24T02:36:37.160Z,5.80
2023-01-24T02:40:39.701Z,5.87
2023-01-24T02:44:44.450Z,5.40
2023-01-24T02:48:46.708Z,6.97
2023-01-24T02:52:49.149Z,6.83
2023-01-24T02:56:51.300Z,4.80
2023-01-24T03:00:54.129Z,5.13
2023-01-24T03:04:56.633Z,4.87
2023-01-24T03:08:59.865Z,6.17
2023-01-24T03:13:10.266Z,6.20
2023-01-24T03:17:12.575Z,6.37
2023-01-24T03:21:15.274Z,6.40
2023-01-24T03:25:17.628Z,5.97
2023-01-24T03:29:20.058Z,5.87
2023-01-24T03:33:22.663Z,5.23
2023-01-24T03:37:26.154Z,5.80
2023-01-24T03:41:28.908Z,6.73
2023-01-24T03:45:33.189Z,7.93
2023-01-24T03:49:35.974Z,6.83
2023-01-24T03:53:38.238Z,7.77
2023-01-24T03:57:40.612Z,7.10
2023-01-24T04:01:43.799Z,5.30
2023-01-24T04:05:54.144Z,9.50
2023-01-24T04:09:56.776Z,5.03
2023-01-24T04:13:59.156Z,7.97
2023-01-24T04:18:03.123Z,6.40
2023-01-24T04:22:05.351Z,7.23
2023-01-24T04:26:09.357Z,6.43
2023-01-24T04:30:12.565Z,5.33
2023-01-24T04:34:16.477Z,6.23
2023-01-24T04:38:18.735Z,5.20
2023-01-24T04:42:32.418Z,3.97
2023-01-24T04:46:34.607Z,4.60
2023-01-24T04:50:36.848Z,6.50
2023-01-24T04:54:40.017Z,5.50
2023-01-24T04:58:42.358Z,7.57
2023-01-24T05:02:44.685Z,6.83
2023-01-24T05:06:47.082Z,6.83
2023-01-24T05:10:49.438Z,5.47
2023-01-24T05:14:51.612Z,5.40
2023-01-24T05:18:54.261Z,7.73
2023-01-24T05:22:57.743Z,4.43
2023-01-24T05:27:01.407Z,7.57
2023-01-24T05:31:06.766Z,7.93
2023-01-24T05:35:10.325Z,7.07
2023-01-24T05:39:12.737Z,6.17
2023-01-24T05:43:17.460Z,10.43
2023-01-24T05:47:19.962Z,8.37
2023-01-24T05:51:22.445Z,7.67
2023-01-24T05:55:25.048Z,7.53
2023-01-24T05:59:28.826Z,8.80
2023-01-24T06:03:33.309Z,7.60
2023-01-24T06:07:35.501Z,8.20
2023-01-24T06:11:37.805Z,10.93
2023-01-24T06:15:45.762Z,10.87
2023-01-24T06:19:49.368Z,10.10
2023-01-24T06:23:51.717Z,10.50
2023-01-24T06:27:55.080Z,10.37
2023-01-24T06:32:06.640Z,10.83
2023-01-24T06:36:35.258Z,9.20
2023-01-24T06:40:37.590Z,11.07
2023-01-24T06:44:39.826Z,12.57
2023-01-24T06:48:45.352Z,13.70
2023-01-24T06:52:47.988Z,15.73
2023-01-24T06:56:50.217Z,14.00
2023-01-24T07:00:53.629Z,15.13
2023-01-24T07:04:55.869Z,18.13
2023-01-24T07:08:59.928Z,13.90
2023-01-24T07:13:02.216Z,15.23
2023-01-24T07:17:04.557Z,20.57
2023-01-24T07:21:07.732Z,14.00
2023-01-24T07:25:13.464Z,17.73
2023-01-24T07:29:15.742Z,17.97
2023-01-24T07:33:17.976Z,16.70
2023-01-24T07:37:20.162Z,19.30
2023-01-24T07:41:22.338Z,19.83
2023-01-24T07:45:29.009Z,18.53
2023-01-24T07:49:31.202Z,23.90
2023-01-24T07:53:33.486Z,17.40
2023-01-24T07:57:35.727Z,27.40
2023-01-24T08:01:37.866Z,18.03
2023-01-24T08:05:40.067Z,24.33
2023-01-24T08:09:42.286Z,25.03
2023-01-24T08:13:47.868Z,26.50
2023-01-24T08:17:49.994Z,25.43
2023-01-24T08:21:52.211Z,24.70
2023-01-24T08:25:54.427Z,24.07
2023-01-24T08:29:56.673Z,29.77
2023-01-24T08:33:58.893Z,31.00
2023-01-24T08:38:01.145Z,28.47
2023-01-24T08:42:03.356Z,26.10
2023-01-24T08:46:05.629Z,33.93
2023-01-24T08:50:08.158Z,24.63
2023-01-24T08:54:10.335Z,25.83
2023-01-24T08:58:13.766Z,34.43
2023-01-24T09:02:16.780Z,27.20
2023-01-24T09:06:19.100Z,18.97
2023-01-24T09:10:21.338Z,27.30
2023-01-24T09:14:23.510Z,28.33
2023-01-24T09:18:25.874Z,28.40
2023-01-24T09:22:28.724Z,32.13
2023-01-24T09:26:30.876Z,27.37
2023-01-24T09:30:33.071Z,26.73
2023-01-24T09:34:35.306Z,27.53
2023-01-24T09:38:37.455Z,22.03
2023-01-24T09:42:41.595Z,24.53
2023-01-24T09:46:45.441Z,24.90
2023-01-24T09:50:47.622Z,28.07
2023-01-24T09:54:57.987Z,32.63
2023-01-24T09:59:04.008Z,29.77
2023-01-24T10:03:24.899Z,25.97
2023-01-24T10:07:32.896Z,22.73
2023-01-24T10:11:47.351Z,20.67
2023-01-24T10:15:55.383Z,23.10
2023-01-24T10:20:04.774Z,21.23
2023-01-24T10:24:10.156Z,16.70
2023-01-24T10:28:19.024Z,30.67
2023-01-24T10:32:25.018Z,21.30
2023-01-24T10:36:36.458Z,26.07
2023-01-24T10:40:50.126Z,26.57
2023-01-24T10:44:53.042Z,21.07
2023-01-24T10:48:57.031Z,26.00
2023-01-24T10:53:15.816Z,29.47
2023-01-24T10:57:28.968Z,23.57
2023-01-24T11:01:34.128Z,23.10
2023-01-24T11:05:39.010Z,22.47
2023-01-24T11:09:41.349Z,24.47
2023-01-24T11:13:43.549Z,17.90
2023-01-24T11:17:45.936Z,22.27
2023-01-24T11:21:56.039Z,23.30
2023-01-24T11:25:59.404Z,18.23
2023-01-24T11:30:20.189Z,21.90
2023-01-24T11:34:22.333Z,15.47
2023-01-24T11:38:30.342Z,18.07
2023-01-24T11:42:38.604Z,21.77
2023-01-24T11:46:49.338Z,19.17
2023-01-24T11:51:14.483Z,19.00
2023-01-24T11:55:16.811Z,21.40
2023-01-24T11:59:18.945Z,22.27
2023-01-24T12:03:33.495Z,18.13
2023-01-24T12:07:54.170Z,21.87
2023-01-24T12:12:05.957Z,26.87
2023-01-24T12:16:11.081Z,22.97
2023-01-24T12:20:31.258Z,24.50
2023-01-24T12:24:39.459Z,22.07
2023-01-24T12:28:46.133Z,16.13
2023-01-24T12:32:54.119Z,14.03
2023-01-24T12:37:16.544Z,12.23
2023-01-24T12:41:37.303Z,15.50
2023-01-24T12:45:54.885Z,15.07
2023-01-24T12:50:00.113Z,19.03
2023-01-24T12:54:15.128Z,18.83
2023-01-24T12:58:20.256Z,17.47
2023-01-24T13:02:22.420Z,20.03
2023-01-24T13:06:24.616Z,15.00
2023-01-24T13:10:26.767Z,21.20
2023-01-24T13:14:31.373Z,15.00
2023-01-24T13:18:52.167Z,12.47
2023-01-24T13:22:54.391Z,16.63
2023-01-24T13:26:59.281Z,15.27
2023-01-24T13:31:10.305Z,17.57
2023-01-24T13:35:20.501Z,19.93
2023-01-24T13:39:34.171Z,18.13
2023-01-24T13:43:36.357Z,20.87
2023-01-24T13:47:38.553Z,17.63
2023-01-24T13:51:44.822Z,13.57
2023-01-24T13:56:03.044Z,21.53
2023-01-24T14:00:08.024Z,14.03
2023-01-24T14:04:14.209Z,20.80
2023-01-24T14:08:32.734Z,18.87
2023-01-24T14:12:37.518Z,14.00
2023-01-24T14:16:39.694Z,16.63
2023-01-24T14:20:45.355Z,15.20
2023-01-24T14:24:56.164Z,16.47
2023-01-24T14:29:01.886Z,20.37
2023-01-24T14:33:16.449Z,19.40
2023-01-24T14:37:19.263Z,18.67
2023-01-24T14:41:23.215Z,17.57
2023-01-24T14:45:28.209Z,17.17
2023-01-24T14:49:30.396Z,18.70
2023-01-24T14:53:33.306Z,13.03
2023-01-24T14:57:35.515Z,16.97
2023-01-24T15:01:38.168Z,17.03
2023-01-24T15:05:40.615Z,18.17
2023-01-24T15:09:43.515Z,16.53
2023-01-24T15:13:46.904Z,17.53
2023-01-24T15:17:50.247Z,17.23
2023-01-24T15:21:53.171Z,20.13
2023-01-24T15:25:55.503Z,17.70
2023-01-24T15:30:15.252Z,20.07
2023-01-24T15:34:21.338Z,18.13
2023-01-24T15:38:30.126Z,16.60
2023-01-24T15:42:32.467Z,17.17
2023-01-24T15:46:34.682Z,19.77
2023-01-24T15:50:36.923Z,16.27
2023-01-24T15:54:40.252Z,20.80
2023-01-24T15:58:42.387Z,19.60
2023-01-24T16:02:44.592Z,21.07
2023-01-24T16:06:47.060Z,15.57
2023-01-24T16:10:49.287Z,16.40
2023-01-24T16:15:07.795Z,18.33
2023-01-24T16:19:18.173Z,15.47
2023-01-24T16:23:20.461Z,14.67
2023-01-24T16:27:22.728Z,17.47
2023-01-24T16:31:24.971Z,14.00
2023-01-24T16:35:27.282Z,20.73
2023-01-24T16:39:29.456Z,13.83
2023-01-24T16:43:31.637Z,16.23
2023-01-24T16:47:33.836Z,15.30
2023-01-24T16:51:35.955Z,19.33
2023-01-24T16:55:38.195Z,17.77
2023-01-24T16:59:40.398Z,14.53
2023-01-24T17:03:42.572Z,15.67
2023-01-24T17:07:44.753Z,16.60
2023-01-24T17:11:46.884Z,18.67
2023-01-24T17:15:49.093Z,14.93
2023-01-24T17:19:51.240Z,17.27
2023-01-24T17:23:53.711Z,14.00
2023-01-24T17:27:56.028Z,14.20
2023-01-24T17:31:58.376Z,17.13
2023-01-24T17:36:00.670Z,14.33
2023-01-24T17:40:03.289Z,17.33
2023-01-24T17:44:05.694Z,11.10
2023-01-24T17:48:07.871Z,14.03
2023-01-24T17:52:10.135Z,14.77
2023-01-24T17:56:12.942Z,12.87
2023-01-24T18:00:15.206Z,12.47
2023-01-24T18:04:17.446Z,9.83
2023-01-24T18:08:20.230Z,10.87
2023-01-24T18:12:22.429Z,10.67
2023-01-24T18:16:24.682Z,20.03
2023-01-24T18:20:27.095Z,13.30
2023-01-24T18:24:29.340Z,11.30
2023-01-24T18:28:32.780Z,18.77
2023-01-24T18:32:34.952Z,14.60
2023-01-24T18:36:37.157Z,11.93
2023-01-24T18:40:39.339Z,17.03
2023-01-24T18:44:41.516Z,11.80
2023-01-24T18:48:44.429Z,10.40
2023-01-24T18:52:46.583Z,12.30
2023-01-24T18:56:48.732Z,11.33
2023-01-24T19:00:51.096Z,11.40
2023-01-24T19:04:53.275Z,14.67
2023-01-24T19:09:03.139Z,11.50
2023-01-24T19:13:06.535Z,15.00
2023-01-24T19:17:09.265Z,14.13
2023-01-24T19:21:12.111Z,13.93
2023-01-24T19:25:14.264Z,11.37
2023-01-24T19:29:16.441Z,17.03
2023-01-24T19:33:18.863Z,12.30
2023-01-24T19:37:21.065Z,12.17
2023-01-24T19:41:24.216Z,10.80
2023-01-24T19:45:26.394Z,13.10
2023-01-24T19:49:28.574Z,14.03
2023-01-24T19:53:30.973Z,12.73
2023-01-24T19:57:33.152Z,12.83
2023-01-24T20:01:35.345Z,13.70
2023-01-24T20:05:40.309Z,11.87
2023-01-24T20:09:42.502Z,15.57
2023-01-24T20:13:45.112Z,13.20
2023-01-24T20:17:47.284Z,14.57
2023-01-24T20:21:49.465Z,12.50
2023-01-24T20:25:51.627Z,13.63
2023-01-24T20:29:53.753Z,12.80
2023-01-24T20:33:56.241Z,10.97
2023-01-24T20:37:58.396Z,9.87
2023-01-24T20:42:00.539Z,11.57
2023-01-24T20:46:03.573Z,11.30
2023-01-24T20:50:06.374Z,13.83
2023-01-24T20:54:08.527Z,14.23
2023-01-24T20:58:10.682Z,10.30
2023-01-24T21:02:12.937Z,15.20
2023-01-24T21:06:16.715Z,9.03
2023-01-24T21:10:18.935Z,11.90
2023-01-24T21:14:21.068Z,9.67
2023-01-24T21:18:23.262Z,8.73
2023-01-24T21:22:25.476Z,23.77
2023-01-24T21:26:27.674Z,14.23
2023-01-24T21:30:29.931Z,8.53
2023-01-24T21:34:32.115Z,6.50
2023-01-24T21:38:35.068Z,19.63
2023-01-24T21:42:37.309Z,13.60
2023-01-24T21:46:39.511Z,10.87
2023-01-24T21:50:41.678Z,14.90
2023-01-24T21:54:43.932Z,49.63
2023-01-24T21:58:46.084Z,11.97
2023-01-24T22:02:48.248Z,14.43
2023-01-24T22:06:50.772Z,8.87
2023-01-24T22:10:58.025Z,25.77
2023-01-24T22:15:00.357Z,13.60
2023-01-24T22:19:02.697Z,14.53
2023-01-24T22:23:08.758Z,15.63
2023-01-24T22:27:19.047Z,27.17
2023-01-24T22:31:21.442Z,16.57
2023-01-24T22:35:24.880Z,27.53
2023-01-24T22:39:27.017Z,21.67
2023-01-24T22:43:29.231Z,13.03
2023-01-24T22:47:31.461Z,12.40
2023-01-24T22:51:33.676Z,10.37
2023-01-24T22:55:37.356Z,14.53
2023-01-24T22:59:39.579Z,20.03
2023-01-24T23:03:41.848Z,15.87
2023-01-24T23:07:44.102Z,23.37
2023-01-24T23:11:46.668Z,10.97
2023-01-24T23:15:48.825Z,12.17
2023-01-24T23:19:50.952Z,18.53
2023-01-24T23:23:53.162Z,12.73
2023-01-24T23:27:55.379Z,11.43
2023-01-24T23:31:58.193Z,12.30
2023-01-24T23:36:01.071Z,9.10
2023-01-24T23:40:03.665Z,10.47
2023-01-24T23:44:05.827Z,9.63
2023-01-24T23:48:08.033Z,10.80
2023-01-24T23:52:10.538Z,10.70
2023-01-24T23:56:12.731Z,9.97
